createdAt,value
2022-08-17T00:00:44.085Z,18.92
2022-08-17T00:03:10.740Z,18.90
2022-08-17T00:05:42.610Z,18.89
2022-08-17T00:08:11.371Z,18.92
2022-08-17T00:10:40.935Z,18.93
2022-08-17T00:13:11.509Z,18.95
2022-08-17T00:15:39.685Z,18.97
2022-08-17T00:19:02.000Z,18.98
2022-08-17T00:20:58.520Z,18.98
2022-08-17T00:23:27.806Z,19.01
2022-08-17T00:25:57.548Z,19.02
2022-08-17T00:28:25.817Z,19.04
2022-08-17T00:30:55.287Z,19.07
2022-08-17T00:33:27.494Z,19.09
2022-08-17T00:35:56.846Z,19.09
2022-08-17T00:38:26.654Z,19.11
2022-08-17T00:40:59.014Z,19.14
2022-08-17T00:43:32.124Z,19.15
2022-08-17T00:46:02.630Z,19.16
2022-08-17T00:48:32.066Z,19.18
2022-08-17T00:51:05.527Z,19.19
2022-08-17T00:53:36.719Z,19.22
2022-08-17T00:56:11.398Z,19.21
2022-08-17T00:58:39.950Z,19.20
2022-08-17T01:01:11.264Z,19.25
2022-08-17T01:03:41.015Z,19.25
2022-08-17T01:06:10.204Z,19.26
2022-08-17T01:08:40.551Z,19.30
2022-08-17T01:11:10.272Z,19.31
2022-08-17T01:13:41.836Z,19.32
2022-08-17T01:16:17.094Z,19.30
2022-08-17T01:18:47.878Z,19.31
2022-08-17T01:21:19.431Z,19.27
2022-08-17T01:23:49.012Z,19.22
2022-08-17T01:26:17.790Z,19.21
2022-08-17T01:28:55.142Z,19.24
2022-08-17T01:31:28.877Z,19.19
2022-08-17T01:33:59.528Z,19.17
2022-08-17T01:36:30.593Z,19.16
2022-08-17T01:39:00.779Z,19.14
2022-08-17T01:41:30.284Z,19.07
2022-08-17T01:44:02.549Z,19.03
2022-08-17T01:46:33.713Z,18.99
2022-08-17T01:49:04.629Z,18.97
2022-08-17T01:51:33.551Z,18.94
2022-08-17T01:54:07.321Z,18.94
2022-08-17T01:56:37.976Z,18.92
2022-08-17T01:59:06.548Z,18.92
2022-08-17T02:01:35.687Z,18.89
2022-08-17T02:04:06.609Z,18.85
2022-08-17T02:06:44.981Z,18.81
2022-08-17T02:09:16.589Z,18.79
2022-08-17T02:11:46.433Z,18.75
2022-08-17T02:14:15.126Z,18.72
2022-08-17T02:16:43.827Z,18.72
2022-08-17T02:19:14.278Z,18.70
2022-08-17T02:21:45.486Z,18.67
2022-08-17T02:24:59.509Z,18.63
2022-08-17T02:27:07.869Z,18.58
2022-08-17T02:29:35.926Z,18.54
2022-08-17T02:32:05.072Z,18.54
2022-08-17T02:34:33.490Z,18.53
2022-08-17T02:37:01.661Z,18.48
2022-08-17T02:39:31.540Z,18.45
2022-08-17T02:42:02.949Z,18.44
2022-08-17T02:44:39.035Z,18.43
2022-08-17T02:47:09.175Z,18.37
2022-08-17T02:49:37.716Z,18.36
2022-08-17T02:52:08.161Z,18.37
2022-08-17T02:54:40.818Z,18.38
2022-08-17T02:57:11.258Z,18.35
2022-08-17T02:59:39.892Z,18.38
2022-08-17T03:02:09.697Z,18.36
2022-08-17T03:04:38.227Z,18.37
2022-08-17T03:07:06.872Z,18.34
2022-08-17T03:09:35.271Z,18.32
2022-08-17T03:12:11.120Z,18.35
2022-08-17T03:14:41.651Z,18.32
2022-08-17T03:17:11.258Z,18.28
2022-08-17T03:19:45.371Z,18.28
2022-08-17T03:22:34.762Z,18.27
2022-08-17T03:25:01.836Z,18.23
2022-08-17T03:27:31.813Z,18.23
2022-08-17T03:29:59.998Z,18.20
2022-08-17T03:32:28.165Z,18.20
2022-08-17T03:35:00.284Z,18.23
2022-08-17T03:37:28.453Z,18.23
2022-08-17T03:39:56.748Z,18.23
2022-08-17T03:42:32.584Z,18.23
2022-08-17T03:45:04.562Z,18.21
2022-08-17T03:47:50.610Z,18.22
2022-08-17T03:50:37.526Z,18.22
2022-08-17T03:53:32.114Z,18.21
2022-08-17T03:56:18.599Z,18.20
2022-08-17T03:58:47.346Z,18.21
2022-08-17T04:01:17.949Z,18.21
2022-08-17T04:03:45.954Z,18.22
2022-08-17T04:06:15.262Z,18.20
2022-08-17T04:08:43.425Z,18.20
2022-08-17T04:11:11.519Z,18.16
2022-08-17T04:13:39.595Z,18.19
2022-08-17T04:16:07.936Z,18.19
2022-08-17T04:18:37.315Z,18.17
2022-08-17T04:21:05.714Z,18.16
2022-08-17T04:23:36.572Z,18.17
2022-08-17T04:26:04.927Z,18.16
2022-08-17T04:28:32.988Z,18.19
2022-08-17T04:31:01.155Z,18.21
2022-08-17T04:33:31.073Z,18.24
2022-08-17T04:36:02.745Z,18.23
2022-08-17T04:38:32.916Z,18.25
2022-08-17T04:41:19.095Z,18.26
2022-08-17T04:43:49.664Z,18.24
2022-08-17T04:46:21.181Z,18.23
2022-08-17T04:48:51.436Z,18.24
2022-08-17T04:51:22.440Z,18.22
2022-08-17T04:53:54.878Z,18.22
2022-08-17T04:56:25.099Z,18.19
2022-08-17T04:58:55.893Z,18.20
2022-08-17T05:01:25.287Z,18.22
2022-08-17T05:03:54.233Z,18.21
2022-08-17T05:06:24.482Z,18.20
2022-08-17T05:08:52.640Z,18.19
2022-08-17T05:11:21.113Z,18.21
2022-08-17T05:13:50.721Z,18.24
2022-08-17T05:16:20.218Z,18.21
2022-08-17T05:18:48.544Z,18.22
2022-08-17T05:21:17.418Z,18.25
2022-08-17T05:23:50.349Z,18.24
2022-08-17T05:26:26.134Z,18.23
2022-08-17T05:28:59.517Z,18.23
2022-08-17T05:31:28.760Z,18.22
2022-08-17T05:33:57.130Z,18.22
2022-08-17T05:36:42.300Z,18.22
2022-08-17T05:39:16.523Z,18.26
2022-08-17T05:41:47.827Z,18.27
2022-08-17T05:44:16.223Z,18.30
2022-08-17T05:46:49.847Z,18.35
2022-08-17T05:49:23.231Z,18.37
2022-08-17T05:52:10.824Z,18.42
2022-08-17T05:54:56.252Z,18.49
2022-08-17T05:57:47.559Z,18.53
2022-08-17T06:00:30.614Z,18.59
2022-08-17T06:03:15.045Z,18.61
2022-08-17T06:06:05.339Z,18.64
2022-08-17T06:08:40.721Z,18.71
2022-08-17T06:11:21.291Z,18.77
2022-08-17T06:14:23.684Z,18.83
2022-08-17T06:16:55.074Z,18.87
2022-08-17T06:19:32.447Z,18.87
2022-08-17T06:22:02.756Z,18.84
2022-08-17T06:24:37.268Z,18.93
2022-08-17T06:27:14.920Z,18.93
2022-08-17T06:29:50.516Z,19.01
2022-08-17T06:32:19.011Z,19.08
2022-08-17T06:34:48.132Z,19.08
2022-08-17T06:37:31.154Z,19.13
2022-08-17T06:40:15.361Z,19.17
2022-08-17T06:43:06.469Z,19.24
2022-08-17T06:45:39.819Z,19.33
2022-08-17T06:48:14.165Z,19.38
2022-08-17T06:50:48.289Z,19.49
2022-08-17T06:53:23.425Z,19.58
2022-08-17T06:55:59.971Z,19.55
2022-08-17T06:58:31.499Z,19.59
2022-08-17T07:01:07.140Z,19.67
2022-08-17T07:03:45.662Z,19.66
2022-08-17T07:06:18.340Z,19.76
2022-08-17T07:08:54.212Z,19.74
2022-08-17T07:11:28.611Z,19.83
2022-08-17T07:14:05.569Z,19.76
2022-08-17T07:16:39.771Z,19.81
2022-08-17T07:19:11.054Z,19.95
2022-08-17T07:21:55.576Z,20.06
2022-08-17T07:24:35.665Z,20.07
2022-08-17T07:27:10.589Z,20.14
2022-08-17T07:29:46.726Z,20.25
2022-08-17T07:32:19.473Z,20.24
2022-08-17T07:35:10.667Z,20.39
2022-08-17T07:37:41.089Z,20.41
2022-08-17T07:40:22.285Z,20.40
2022-08-17T07:43:23.197Z,20.47
2022-08-17T07:46:17.942Z,20.36
2022-08-17T07:48:49.766Z,20.22
2022-08-17T07:51:21.687Z,20.19
2022-08-17T07:53:50.191Z,20.27
2022-08-17T07:56:41.072Z,20.28
2022-08-17T07:59:15.592Z,20.18
2022-08-17T08:01:48.854Z,20.11
2022-08-17T08:07:27.533Z,20.15
2022-08-17T08:10:03.998Z,20.07
2022-08-17T08:12:35.146Z,20.13
2022-08-17T08:15:14.183Z,20.17
2022-08-17T08:17:57.572Z,20.22
2022-08-17T08:20:51.166Z,20.25
2022-08-17T08:23:36.226Z,20.09
2022-08-17T08:26:18.738Z,20.20
2022-08-17T08:28:54.699Z,20.06
2022-08-17T08:31:32.986Z,20.13
2022-08-17T08:34:58.787Z,20.20
2022-08-17T08:37:16.595Z,20.43
2022-08-17T08:39:57.093Z,20.55
2022-08-17T08:42:34.366Z,20.57
2022-08-17T08:45:09.396Z,20.56
2022-08-17T08:48:46.153Z,20.67
2022-08-17T08:51:13.878Z,20.99
2022-08-17T08:53:51.544Z,20.66
2022-08-17T08:56:27.843Z,20.97
2022-08-17T08:59:02.529Z,20.92
2022-08-17T09:01:38.361Z,21.07
2022-08-17T09:04:29.358Z,21.07
2022-08-17T09:07:12.845Z,21.01
2022-08-17T09:09:59.326Z,21.13
2022-08-17T09:12:37.487Z,21.27
2022-08-17T09:15:13.079Z,21.37
2022-08-17T09:17:59.395Z,21.22
2022-08-17T09:20:49.524Z,21.24
2022-08-17T09:23:35.576Z,21.32
2022-08-17T09:26:12.478Z,21.29
2022-08-17T09:28:45.894Z,21.29
2022-08-17T09:31:21.351Z,21.31
2022-08-17T09:33:51.301Z,21.34
2022-08-17T09:36:24.222Z,21.40
2022-08-17T09:39:01.463Z,21.55
2022-08-17T09:41:38.870Z,21.57
2022-08-17T09:44:27.110Z,21.69
2022-08-17T09:47:01.085Z,21.78
2022-08-17T09:49:34.665Z,21.90
2022-08-17T09:52:09.005Z,21.82
2022-08-17T09:54:41.405Z,22.24
2022-08-17T09:57:31.670Z,22.40
2022-08-17T10:00:18.840Z,22.34
2022-08-17T10:03:01.594Z,22.41
2022-08-17T10:05:38.576Z,22.41
2022-08-17T10:08:21.696Z,22.38
2022-08-17T10:11:07.001Z,22.32
2022-08-17T10:13:47.168Z,22.25
2022-08-17T10:16:30.881Z,22.27
2022-08-17T10:19:08.263Z,22.30
2022-08-17T10:22:00.815Z,22.18
2022-08-17T10:25:21.560Z,22.69
2022-08-17T10:27:48.854Z,22.88
2022-08-17T10:30:20.097Z,22.53
2022-08-17T10:32:55.116Z,22.57
2022-08-17T10:35:34.323Z,22.61
2022-08-17T10:38:45.957Z,23.00
2022-08-17T10:41:39.658Z,23.47
2022-08-17T10:44:39.217Z,23.61
2022-08-17T10:47:09.797Z,23.66
2022-08-17T10:49:44.305Z,23.90
2022-08-17T10:52:45.780Z,24.26
2022-08-17T10:55:15.900Z,24.60
2022-08-17T10:57:45.943Z,24.43
2022-08-17T11:01:03.975Z,24.64
2022-08-17T11:03:33.248Z,24.74
2022-08-17T11:06:12.789Z,25.06
2022-08-17T11:09:08.835Z,24.97
2022-08-17T11:11:58.712Z,24.88
2022-08-17T11:14:53.312Z,24.83
2022-08-17T11:17:43.443Z,24.95
2022-08-17T11:20:28.981Z,25.18
2022-08-17T11:23:25.920Z,25.34
2022-08-17T11:25:56.522Z,25.59
2022-08-17T11:28:28.173Z,25.60
2022-08-17T11:30:59.117Z,25.96
2022-08-17T11:33:56.094Z,25.94
2022-08-17T11:36:51.886Z,25.32
2022-08-17T11:39:39.434Z,25.18
2022-08-17T11:42:21.042Z,25.47
2022-08-17T11:44:55.877Z,25.55
2022-08-17T11:48:08.934Z,25.91
2022-08-17T11:51:05.025Z,26.06
2022-08-17T11:54:31.251Z,25.94
2022-08-17T11:56:52.973Z,25.97
2022-08-17T12:00:00.210Z,25.72
2022-08-17T12:02:47.526Z,25.37
2022-08-17T12:05:32.343Z,24.95
2022-08-17T12:08:16.038Z,24.99
2022-08-17T12:11:01.366Z,24.83
2022-08-17T12:13:39.363Z,24.58
2022-08-17T12:16:09.998Z,24.70
2022-08-17T12:18:42.069Z,25.01
2022-08-17T12:21:40.261Z,24.77
2022-08-17T12:24:20.055Z,24.81
2022-08-17T12:26:53.801Z,24.80
2022-08-17T12:29:35.848Z,24.98
2022-08-17T12:32:14.092Z,25.04
2022-08-17T12:34:44.702Z,24.94
2022-08-17T12:37:16.970Z,25.17
2022-08-17T12:39:53.508Z,25.02
2022-08-17T12:42:34.764Z,25.07
2022-08-17T12:45:02.896Z,24.91
2022-08-17T12:47:31.914Z,24.97
2022-08-17T12:50:08.438Z,24.69
2022-08-17T12:53:01.755Z,24.78
2022-08-17T12:55:38.905Z,24.80
2022-08-17T12:58:14.421Z,24.60
2022-08-17T13:00:49.986Z,24.26
2022-08-17T13:03:21.019Z,24.00
2022-08-17T13:06:00.725Z,23.87
2022-08-17T13:08:35.289Z,23.51
2022-08-17T13:11:08.494Z,23.50
2022-08-17T13:13:39.487Z,23.47
2022-08-17T13:16:16.693Z,23.56
2022-08-17T13:18:48.065Z,23.14
2022-08-17T13:21:27.818Z,23.11
2022-08-17T13:24:02.704Z,22.86
2022-08-17T13:26:36.188Z,22.84
2022-08-17T13:29:07.660Z,22.91
2022-08-17T13:31:52.367Z,23.01
2022-08-17T13:35:12.090Z,22.98
2022-08-17T13:37:32.532Z,22.96
2022-08-17T13:40:31.631Z,22.95
2022-08-17T13:43:03.346Z,22.99
2022-08-17T13:45:50.328Z,22.95
2022-08-17T13:48:25.828Z,22.88
2022-08-17T13:51:25.149Z,23.04
2022-08-17T13:54:24.461Z,23.12
2022-08-17T13:57:05.105Z,23.04
2022-08-17T13:59:55.053Z,23.11
2022-08-17T14:02:27.703Z,23.11
2022-08-17T14:04:59.063Z,23.07
2022-08-17T14:07:32.134Z,22.92
2022-08-17T14:10:03.402Z,22.83
2022-08-17T14:12:34.205Z,22.83
2022-08-17T14:15:04.695Z,22.75
2022-08-17T14:17:36.607Z,22.70
2022-08-17T14:20:09.535Z,22.63
2022-08-17T14:22:41.607Z,22.52
2022-08-17T14:25:10.917Z,22.50
2022-08-17T14:27:51.736Z,22.57
2022-08-17T14:30:25.296Z,22.25
2022-08-17T14:32:58.074Z,22.04
2022-08-17T14:35:28.043Z,22.10
2022-08-17T14:37:57.129Z,22.07
2022-08-17T14:40:26.221Z,22.10
2022-08-17T14:42:57.924Z,21.88
2022-08-17T14:45:32.852Z,21.67
2022-08-17T14:48:05.748Z,21.80
2022-08-17T14:50:35.713Z,21.81
2022-08-17T14:53:06.173Z,21.73
2022-08-17T14:55:34.556Z,21.72
2022-08-17T14:58:04.061Z,21.51
2022-08-17T15:00:34.822Z,21.48
2022-08-17T15:03:03.393Z,21.17
2022-08-17T15:05:35.047Z,21.04
2022-08-17T15:08:04.669Z,20.98
2022-08-17T15:10:33.806Z,21.02
2022-08-17T15:13:02.066Z,21.00
2022-08-17T15:15:31.046Z,20.90
2022-08-17T15:18:01.120Z,20.58
2022-08-17T15:20:31.037Z,20.16
2022-08-17T15:22:59.877Z,20.28
2022-08-17T15:25:29.828Z,20.43
2022-08-17T15:27:58.174Z,20.36
2022-08-17T15:30:27.229Z,20.17
2022-08-17T15:32:57.517Z,20.14
2022-08-17T15:35:29.449Z,20.01
2022-08-17T15:38:06.159Z,20.12
2022-08-17T15:40:40.339Z,20.09
2022-08-17T15:43:11.381Z,19.97
2022-08-17T15:45:40.569Z,19.95
2022-08-17T15:48:09.257Z,19.87
2022-08-17T15:50:38.668Z,19.92
2022-08-17T15:53:06.831Z,19.87
2022-08-17T15:55:35.307Z,19.76
2022-08-17T15:58:03.455Z,19.73
2022-08-17T16:00:36.396Z,19.70
2022-08-17T16:03:58.108Z,19.49
2022-08-17T16:06:10.074Z,19.59
2022-08-17T16:08:39.374Z,19.48
2022-08-17T16:11:08.367Z,19.49
2022-08-17T16:13:36.436Z,19.40
2022-08-17T16:16:05.098Z,19.44
2022-08-17T16:18:33.232Z,19.45
2022-08-17T16:21:23.605Z,19.33
2022-08-17T16:23:56.214Z,19.36
2022-08-17T16:26:24.448Z,19.34
2022-08-17T16:28:53.411Z,19.38
2022-08-17T16:31:21.672Z,19.36
2022-08-17T16:34:16.731Z,19.48
2022-08-17T16:36:39.363Z,19.58
2022-08-17T16:39:09.046Z,19.51
2022-08-17T16:41:46.624Z,19.51
2022-08-17T16:44:16.986Z,19.51
2022-08-17T16:46:45.887Z,19.59
2022-08-17T16:49:29.648Z,19.61
2022-08-17T16:52:06.365Z,19.65
2022-08-17T16:54:37.995Z,19.71
2022-08-17T16:57:06.436Z,19.60
2022-08-17T16:59:40.708Z,19.57
2022-08-17T17:02:11.336Z,19.63
2022-08-17T17:04:46.719Z,19.66
2022-08-17T17:07:33.944Z,19.68
2022-08-17T17:10:08.934Z,19.74
2022-08-17T17:13:01.546Z,19.77
2022-08-17T17:15:40.422Z,19.67
2022-08-17T17:18:14.048Z,19.68
2022-08-17T17:20:49.297Z,19.78
2022-08-17T17:23:31.309Z,19.79
2022-08-17T17:26:15.242Z,19.82
2022-08-17T17:28:57.041Z,19.79
2022-08-17T17:31:28.803Z,19.68
2022-08-17T17:34:00.544Z,19.78
2022-08-17T17:36:35.707Z,19.85
2022-08-17T17:39:07.718Z,19.93
2022-08-17T17:41:44.459Z,19.91
2022-08-17T17:44:17.996Z,19.98
2022-08-17T17:46:52.554Z,20.02
2022-08-17T17:49:21.145Z,20.03
2022-08-17T17:52:11.161Z,19.97
2022-08-17T17:54:54.091Z,20.02
2022-08-17T17:57:36.978Z,19.94
2022-08-17T18:00:12.616Z,20.03
2022-08-17T18:02:52.866Z,20.06
2022-08-17T18:05:48.447Z,20.07
2022-08-17T18:08:34.348Z,20.10
2022-08-17T18:11:24.203Z,20.11
2022-08-17T18:14:14.897Z,20.10
2022-08-17T18:16:43.292Z,20.17
2022-08-17T18:19:14.211Z,20.17
2022-08-17T18:21:46.020Z,20.16
2022-08-17T18:24:14.816Z,20.17
2022-08-17T18:26:48.034Z,20.13
2022-08-17T18:29:26.361Z,20.17
2022-08-17T18:32:22.882Z,20.09
2022-08-17T18:34:53.539Z,20.16
2022-08-17T18:37:31.743Z,20.11
2022-08-17T18:39:59.989Z,20.01
2022-08-17T18:42:30.120Z,20.09
2022-08-17T18:44:59.667Z,20.04
2022-08-17T18:47:29.541Z,20.06
2022-08-17T18:50:00.586Z,20.05
2022-08-17T18:52:31.187Z,20.02
2022-08-17T18:55:04.097Z,20.04
2022-08-17T18:57:35.470Z,20.02
2022-08-17T19:00:12.685Z,20.00
2022-08-17T19:02:52.103Z,19.89
2022-08-17T19:05:31.300Z,19.91
2022-08-17T19:08:19.972Z,19.92
2022-08-17T19:10:52.455Z,19.86
2022-08-17T19:13:25.845Z,19.90
2022-08-17T19:16:13.050Z,19.88
2022-08-17T19:18:47.923Z,19.78
2022-08-17T19:21:19.951Z,19.83
2022-08-17T19:23:54.995Z,19.79
2022-08-17T19:26:55.382Z,19.78
2022-08-17T19:29:19.488Z,19.77
2022-08-17T19:31:53.096Z,19.70
2022-08-17T19:34:32.333Z,19.70
2022-08-17T19:37:10.739Z,19.66
2022-08-17T19:39:46.644Z,19.69
2022-08-17T19:42:28.544Z,19.67
2022-08-17T19:45:05.467Z,19.61
2022-08-17T19:47:54.778Z,19.65
2022-08-17T19:50:53.252Z,19.64
2022-08-17T19:54:01.717Z,19.68
2022-08-17T19:56:48.599Z,19.69
2022-08-17T19:59:28.311Z,19.67
2022-08-17T20:02:20.219Z,19.75
2022-08-17T20:04:53.081Z,19.73
2022-08-17T20:07:27.502Z,19.72
2022-08-17T20:10:03.456Z,19.73
2022-08-17T20:12:36.184Z,19.74
2022-08-17T20:15:10.847Z,19.69
2022-08-17T20:17:43.334Z,19.75
2022-08-17T20:20:24.006Z,19.70
2022-08-17T20:22:54.614Z,19.74
2022-08-17T20:25:32.789Z,19.72
2022-08-17T20:28:07.241Z,19.64
2022-08-17T20:30:39.109Z,19.73
2022-08-17T20:33:13.104Z,19.70
2022-08-17T20:36:02.951Z,19.79
2022-08-17T20:38:44.027Z,19.78
2022-08-17T20:41:15.839Z,19.81
2022-08-17T20:43:52.212Z,19.75
2022-08-17T20:46:30.045Z,19.79
2022-08-17T20:49:14.722Z,19.81
2022-08-17T20:52:01.707Z,19.77
2022-08-17T20:54:47.841Z,19.83
2022-08-17T20:57:45.677Z,19.70
2022-08-17T21:00:34.988Z,19.79
2022-08-17T21:03:51.329Z,19.78
2022-08-17T21:06:23.404Z,19.78
2022-08-17T21:08:57.964Z,19.76
2022-08-17T21:12:04.303Z,19.72
2022-08-17T21:14:58.160Z,19.73
2022-08-17T21:17:44.645Z,19.71
2022-08-17T21:20:32.264Z,19.69
2022-08-17T21:23:19.286Z,19.66
2022-08-17T21:26:13.703Z,19.70
2022-08-17T21:29:01.239Z,19.66
2022-08-17T21:31:34.619Z,19.63
2022-08-17T21:34:32.944Z,19.70
2022-08-17T21:37:28.651Z,19.49
2022-08-17T21:40:00.322Z,19.63
2022-08-17T21:42:32.560Z,19.58
2022-08-17T21:45:09.153Z,19.60
2022-08-17T21:47:43.597Z,19.57
2022-08-17T21:50:19.453Z,19.46
2022-08-17T21:52:48.946Z,19.51
2022-08-17T21:55:24.956Z,19.54
2022-08-17T21:58:13.807Z,19.45
2022-08-17T22:00:44.345Z,19.47
2022-08-17T22:03:27.797Z,19.43
2022-08-17T22:05:56.148Z,19.45
2022-08-17T22:08:25.761Z,19.42
2022-08-17T22:11:02.928Z,19.44
2022-08-17T22:13:32.844Z,19.46
2022-08-17T22:16:15.742Z,19.43
2022-08-17T22:18:58.143Z,19.47
2022-08-17T22:21:27.679Z,19.42
2022-08-17T22:24:06.216Z,19.40
2022-08-17T22:27:08.086Z,19.46
2022-08-17T22:29:57.034Z,19.47
2022-08-17T22:32:48.484Z,19.49
2022-08-17T22:35:35.554Z,19.43
2022-08-17T22:38:26.462Z,19.44
2022-08-17T22:40:58.435Z,19.41
2022-08-17T22:43:29.829Z,19.42
2022-08-17T22:46:01.597Z,19.42
2022-08-17T22:48:31.480Z,19.42
2022-08-17T22:51:12.700Z,19.40
2022-08-17T22:54:05.302Z,19.42
2022-08-17T22:56:51.517Z,19.43
2022-08-17T22:59:36.897Z,19.41
2022-08-17T23:02:20.789Z,19.37
2022-08-17T23:04:52.578Z,19.37
2022-08-17T23:07:21.204Z,19.31
2022-08-17T23:09:49.345Z,19.29
2022-08-17T23:12:22.811Z,19.31
2022-08-17T23:14:57.193Z,19.28
2022-08-17T23:17:27.684Z,19.26
2022-08-17T23:19:57.080Z,19.20
2022-08-17T23:22:26.068Z,19.14
2022-08-17T23:24:54.607Z,19.20
2022-08-17T23:27:23.252Z,19.21
2022-08-17T23:29:51.488Z,19.20
2022-08-17T23:32:19.863Z,19.13
2022-08-17T23:34:51.801Z,19.18
2022-08-17T23:37:20.947Z,19.11
2022-08-17T23:39:49.040Z,19.11
2022-08-17T23:42:24.513Z,18.98
2022-08-17T23:44:52.764Z,19.02
2022-08-17T23:47:21.420Z,19.07
2022-08-17T23:49:54.228Z,19.05
2022-08-17T23:52:24.286Z,18.98
2022-08-17T23:54:53.446Z,19.07
2022-08-17T23:57:33.432Z,19.02
